sensor_id;sensor_type;location;lat;lon;timestamp;P1;durP1;ratioP1;P2;durP2;ratioP2
53927;SDS011;39837;47.630;18.822;2023-02-15T00:02:06;1.90;;;1.90;;
53927;SDS011;39837;47.630;18.822;2023-02-15T00:04:50;2.55;;;2.42;;
53927;SDS011;39837;47.630;18.822;2023-02-15T00:07:35;3.55;;;3.35;;
53927;SDS011;39837;47.630;18.822;2023-02-15T00:10:19;5.32;;;2.92;;
53927;SDS011;39837;47.630;18.822;2023-02-15T00:13:03;6.53;;;3.13;;
53927;SDS011;39837;47.630;18.822;2023-02-15T00:15:47;3.30;;;3.10;;
53927;SDS011;39837;47.630;18.822;2023-02-15T00:18:31;2.72;;;2.17;;
53927;SDS011;39837;47.630;18.822;2023-02-15T00:21:15;7.35;;;3.63;;
53927;SDS011;39837;47.630;18.822;2023-02-15T00:24:00;3.20;;;3.10;;
53927;SDS011;39837;47.630;18.822;2023-02-15T00:29:30;2.67;;;2.58;;
53927;SDS011;39837;47.630;18.822;2023-02-15T00:32:14;2.63;;;2.53;;
53927;SDS011;39837;47.630;18.822;2023-02-15T00:34:58;3.20;;;2.95;;
53927;SDS011;39837;47.630;18.822;2023-02-15T00:37:42;3.38;;;3.17;;
53927;SDS011;39837;47.630;18.822;2023-02-15T00:40:26;3.25;;;3.05;;
53927;SDS011;39837;47.630;18.822;2023-02-15T00:43:10;2.50;;;2.40;;
53927;SDS011;39837;47.630;18.822;2023-02-15T00:45:53;3.25;;;2.80;;
53927;SDS011;39837;47.630;18.822;2023-02-15T00:48:37;5.35;;;3.45;;
53927;SDS011;39837;47.630;18.822;2023-02-15T00:51:21;3.22;;;2.97;;
53927;SDS011;39837;47.630;18.822;2023-02-15T00:54:05;2.65;;;2.45;;
53927;SDS011;39837;47.630;18.822;2023-02-15T00:56:49;5.82;;;2.35;;
53927;SDS011;39837;47.630;18.822;2023-02-15T00:59:33;2.15;;;2.13;;
53927;SDS011;39837;47.630;18.822;2023-02-15T01:02:17;3.67;;;3.38;;
53927;SDS011;39837;47.630;18.822;2023-02-15T01:05:01;10.20;;;4.07;;
53927;SDS011;39837;47.630;18.822;2023-02-15T01:07:45;3.03;;;2.75;;
53927;SDS011;39837;47.630;18.822;2023-02-15T01:10:29;3.75;;;3.55;;
53927;SDS011;39837;47.630;18.822;2023-02-15T01:13:14;4.15;;;3.80;;
53927;SDS011;39837;47.630;18.822;2023-02-15T01:15:59;4.18;;;2.83;;
53927;SDS011;39837;47.630;18.822;2023-02-15T01:18:43;2.63;;;2.42;;
53927;SDS011;39837;47.630;18.822;2023-02-15T01:21:27;3.03;;;2.75;;
53927;SDS011;39837;47.630;18.822;2023-02-15T01:24:12;3.17;;;2.97;;
53927;SDS011;39837;47.630;18.822;2023-02-15T01:26:57;2.60;;;2.50;;
53927;SDS011;39837;47.630;18.822;2023-02-15T01:29:41;3.40;;;2.80;;
53927;SDS011;39837;47.630;18.822;2023-02-15T01:32:25;2.67;;;2.47;;
53927;SDS011;39837;47.630;18.822;2023-02-15T01:35:10;2.45;;;2.30;;
53927;SDS011;39837;47.630;18.822;2023-02-15T01:37:55;2.95;;;2.75;;
53927;SDS011;39837;47.630;18.822;2023-02-15T01:40:39;2.03;;;1.95;;
53927;SDS011;39837;47.630;18.822;2023-02-15T01:43:27;3.88;;;2.63;;
53927;SDS011;39837;47.630;18.822;2023-02-15T01:49:37;7.97;;;2.22;;
53927;SDS011;39837;47.630;18.822;2023-02-15T01:52:24;3.58;;;3.28;;
53927;SDS011;39837;47.630;18.822;2023-02-15T01:55:08;2.15;;;2.05;;
53927;SDS011;39837;47.630;18.822;2023-02-15T01:57:53;2.72;;;2.63;;
53927;SDS011;39837;47.630;18.822;2023-02-15T02:00:37;2.65;;;2.53;;
53927;SDS011;39837;47.630;18.822;2023-02-15T02:03:24;2.85;;;2.58;;
53927;SDS011;39837;47.630;18.822;2023-02-15T02:06:14;2.55;;;2.45;;
53927;SDS011;39837;47.630;18.822;2023-02-15T02:08:58;3.63;;;3.38;;
53927;SDS011;39837;47.630;18.822;2023-02-15T02:11:42;1.92;;;1.90;;
53927;SDS011;39837;47.630;18.822;2023-02-15T02:14:29;3.58;;;3.25;;
53927;SDS011;39837;47.630;18.822;2023-02-15T02:41:16;1.63;;;1.63;;
53927;SDS011;39837;47.630;18.822;2023-02-15T02:53:11;3.45;;;3.10;;
53927;SDS011;39837;47.630;18.822;2023-02-15T02:55:56;1.88;;;1.77;;
53927;SDS011;39837;47.630;18.822;2023-02-15T02:58:48;30.75;;;1.95;;
53927;SDS011;39837;47.630;18.822;2023-02-15T03:01:37;2.53;;;2.33;;
53927;SDS011;39837;47.630;18.822;2023-02-15T03:04:26;2.40;;;2.40;;
53927;SDS011;39837;47.630;18.822;2023-02-15T03:07:17;2.20;;;2.10;;
53927;SDS011;39837;47.630;18.822;2023-02-15T03:10:05;2.67;;;2.33;;
53927;SDS011;39837;47.630;18.822;2023-02-15T03:12:51;1.40;;;1.40;;
53927;SDS011;39837;47.630;18.822;2023-02-15T03:15:37;2.55;;;2.45;;
53927;SDS011;39837;47.630;18.822;2023-02-15T03:18:46;1.45;;;1.45;;
53927;SDS011;39837;47.630;18.822;2023-02-15T03:21:49;2.13;;;2.03;;
53927;SDS011;39837;47.630;18.822;2023-02-15T03:27:47;2.80;;;2.65;;
53927;SDS011;39837;47.630;18.822;2023-02-15T03:33:17;2.85;;;2.65;;
53927;SDS011;39837;47.630;18.822;2023-02-15T03:36:09;2.50;;;2.40;;
53927;SDS011;39837;47.630;18.822;2023-02-15T03:42:17;1.90;;;1.90;;
53927;SDS011;39837;47.630;18.822;2023-02-15T03:47:52;1.85;;;1.85;;
53927;SDS011;39837;47.630;18.822;2023-02-15T03:50:38;2.60;;;2.50;;
53927;SDS011;39837;47.630;18.822;2023-02-15T03:53:41;12.55;;;1.88;;
53927;SDS011;39837;47.630;18.822;2023-02-15T03:56:26;2.60;;;2.08;;
53927;SDS011;39837;47.630;18.822;2023-02-15T03:59:10;3.90;;;3.05;;
53927;SDS011;39837;47.630;18.822;2023-02-15T04:02:23;1.95;;;1.88;;
53927;SDS011;39837;47.630;18.822;2023-02-15T04:07:54;1.50;;;1.50;;
53927;SDS011;39837;47.630;18.822;2023-02-15T04:10:37;5.47;;;2.35;;
53927;SDS011;39837;47.630;18.822;2023-02-15T04:13:38;2.28;;;2.15;;
53927;SDS011;39837;47.630;18.822;2023-02-15T04:16:25;3.08;;;2.15;;
53927;SDS011;39837;47.630;18.822;2023-02-15T04:19:09;2.47;;;2.38;;
53927;SDS011;39837;47.630;18.822;2023-02-15T04:22:12;1.90;;;1.85;;
53927;SDS011;39837;47.630;18.822;2023-02-15T04:25:15;2.13;;;2.03;;
53927;SDS011;39837;47.630;18.822;2023-02-15T04:27:59;1.80;;;1.70;;
53927;SDS011;39837;47.630;18.822;2023-02-15T04:30:43;3.58;;;3.42;;
53927;SDS011;39837;47.630;18.822;2023-02-15T04:33:28;5.35;;;2.58;;
53927;SDS011;39837;47.630;18.822;2023-02-15T04:36:12;1.90;;;1.90;;
53927;SDS011;39837;47.630;18.822;2023-02-15T04:38:56;2.63;;;2.40;;
53927;SDS011;39837;47.630;18.822;2023-02-15T04:41:40;3.42;;;3.22;;
53927;SDS011;39837;47.630;18.822;2023-02-15T04:44:24;1.45;;;1.45;;
53927;SDS011;39837;47.630;18.822;2023-02-15T04:47:07;2.33;;;2.22;;
53927;SDS011;39837;47.630;18.822;2023-02-15T04:49:52;2.33;;;2.22;;
53927;SDS011;39837;47.630;18.822;2023-02-15T04:52:36;3.10;;;2.90;;
53927;SDS011;39837;47.630;18.822;2023-02-15T04:55:19;5.18;;;3.70;;
53927;SDS011;39837;47.630;18.822;2023-02-15T04:58:03;2.20;;;2.20;;
53927;SDS011;39837;47.630;18.822;2023-02-15T05:00:48;3.60;;;3.30;;
53927;SDS011;39837;47.630;18.822;2023-02-15T05:03:32;3.13;;;2.92;;
53927;SDS011;39837;47.630;18.822;2023-02-15T05:06:16;2.30;;;2.22;;
53927;SDS011;39837;47.630;18.822;2023-02-15T05:09:00;3.90;;;2.33;;
53927;SDS011;39837;47.630;18.822;2023-02-15T05:11:45;2.05;;;2.05;;
53927;SDS011;39837;47.630;18.822;2023-02-15T05:14:29;3.92;;;3.20;;
53927;SDS011;39837;47.630;18.822;2023-02-15T05:17:13;1.88;;;1.88;;
53927;SDS011;39837;47.630;18.822;2023-02-15T05:19:57;3.47;;;3.17;;
53927;SDS011;39837;47.630;18.822;2023-02-15T05:22:41;4.07;;;3.80;;
53927;SDS011;39837;47.630;18.822;2023-02-15T05:25:25;3.75;;;3.45;;
53927;SDS011;39837;47.630;18.822;2023-02-15T05:28:28;2.75;;;2.63;;
53927;SDS011;39837;47.630;18.822;2023-02-15T05:31:17;2.40;;;2.08;;
53927;SDS011;39837;47.630;18.822;2023-02-15T05:34:01;2.45;;;2.35;;
53927;SDS011;39837;47.630;18.822;2023-02-15T05:36:46;2.28;;;1.67;;
53927;SDS011;39837;47.630;18.822;2023-02-15T05:39:30;2.30;;;2.20;;
53927;SDS011;39837;47.630;18.822;2023-02-15T05:42:14;2.60;;;2.40;;
53927;SDS011;39837;47.630;18.822;2023-02-15T05:44:58;2.13;;;2.03;;
53927;SDS011;39837;47.630;18.822;2023-02-15T05:47:42;1.95;;;1.85;;
53927;SDS011;39837;47.630;18.822;2023-02-15T05:50:26;1.70;;;1.70;;
53927;SDS011;39837;47.630;18.822;2023-02-15T05:53:10;1.80;;;1.80;;
53927;SDS011;39837;47.630;18.822;2023-02-15T05:55:55;6.85;;;2.75;;
53927;SDS011;39837;47.630;18.822;2023-02-15T05:58:42;6.60;;;1.48;;
53927;SDS011;39837;47.630;18.822;2023-02-15T06:01:27;2.47;;;2.38;;
53927;SDS011;39837;47.630;18.822;2023-02-15T06:04:11;2.05;;;2.03;;
53927;SDS011;39837;47.630;18.822;2023-02-15T06:06:56;2.00;;;1.90;;
53927;SDS011;39837;47.630;18.822;2023-02-15T06:09:40;2.85;;;2.13;;
53927;SDS011;39837;47.630;18.822;2023-02-15T06:12:24;5.80;;;2.17;;
53927;SDS011;39837;47.630;18.822;2023-02-15T06:15:08;13.20;;;3.47;;
53927;SDS011;39837;47.630;18.822;2023-02-15T06:17:53;2.15;;;2.15;;
53927;SDS011;39837;47.630;18.822;2023-02-15T06:20:37;1.45;;;1.45;;
53927;SDS011;39837;47.630;18.822;2023-02-15T06:23:20;2.33;;;2.22;;
53927;SDS011;39837;47.630;18.822;2023-02-15T06:26:04;8.20;;;6.07;;
53927;SDS011;39837;47.630;18.822;2023-02-15T06:28:48;8.93;;;4.93;;
53927;SDS011;39837;47.630;18.822;2023-02-15T06:31:32;11.50;;;10.18;;
53927;SDS011;39837;47.630;18.822;2023-02-15T06:34:16;15.80;;;9.82;;
53927;SDS011;39837;47.630;18.822;2023-02-15T06:37:01;39.92;;;18.35;;
53927;SDS011;39837;47.630;18.822;2023-02-15T06:39:44;39.65;;;15.93;;
53927;SDS011;39837;47.630;18.822;2023-02-15T06:42:28;10.40;;;8.18;;
53927;SDS011;39837;47.630;18.822;2023-02-15T06:45:12;12.35;;;10.35;;
53927;SDS011;39837;47.630;18.822;2023-02-15T06:47:57;53.28;;;20.15;;
53927;SDS011;39837;47.630;18.822;2023-02-15T06:50:41;39.20;;;13.68;;
53927;SDS011;39837;47.630;18.822;2023-02-15T06:53:25;27.55;;;17.73;;
53927;SDS011;39837;47.630;18.822;2023-02-15T06:56:09;40.95;;;20.48;;
53927;SDS011;39837;47.630;18.822;2023-02-15T06:58:54;33.15;;;18.63;;
53927;SDS011;39837;47.630;18.822;2023-02-15T07:01:38;22.42;;;16.52;;
53927;SDS011;39837;47.630;18.822;2023-02-15T07:04:22;33.42;;;16.33;;
53927;SDS011;39837;47.630;18.822;2023-02-15T07:07:10;25.98;;;16.60;;
53927;SDS011;39837;47.630;18.822;2023-02-15T07:09:55;31.08;;;12.13;;
53927;SDS011;39837;47.630;18.822;2023-02-15T07:12:38;28.35;;;16.65;;
53927;SDS011;39837;47.630;18.822;2023-02-15T07:15:26;39.53;;;17.75;;
53927;SDS011;39837;47.630;18.822;2023-02-15T07:18:10;39.53;;;17.38;;
53927;SDS011;39837;47.630;18.822;2023-02-15T07:20:54;43.95;;;17.42;;
53927;SDS011;39837;47.630;18.822;2023-02-15T07:23:38;26.20;;;13.43;;
53927;SDS011;39837;47.630;18.822;2023-02-15T07:26:22;18.23;;;9.90;;
53927;SDS011;39837;47.630;18.822;2023-02-15T07:29:07;11.07;;;9.88;;
53927;SDS011;39837;47.630;18.822;2023-02-15T07:31:52;17.05;;;11.18;;
53927;SDS011;39837;47.630;18.822;2023-02-15T07:34:36;18.05;;;8.35;;
53927;SDS011;39837;47.630;18.822;2023-02-15T07:37:20;25.15;;;11.00;;
53927;SDS011;39837;47.630;18.822;2023-02-15T07:40:04;18.40;;;10.95;;
53927;SDS011;39837;47.630;18.822;2023-02-15T07:42:49;33.35;;;13.90;;
53927;SDS011;39837;47.630;18.822;2023-02-15T07:45:36;23.70;;;15.63;;
53927;SDS011;39837;47.630;18.822;2023-02-15T07:48:20;23.95;;;14.00;;
53927;SDS011;39837;47.630;18.822;2023-02-15T07:51:05;28.92;;;16.70;;
53927;SDS011;39837;47.630;18.822;2023-02-15T07:53:50;35.95;;;18.10;;
53927;SDS011;39837;47.630;18.822;2023-02-15T07:56:35;27.90;;;16.08;;
53927;SDS011;39837;47.630;18.822;2023-02-15T07:59:19;31.92;;;15.95;;
53927;SDS011;39837;47.630;18.822;2023-02-15T08:02:03;40.17;;;17.90;;
53927;SDS011;39837;47.630;18.822;2023-02-15T08:04:52;45.30;;;18.60;;
53927;SDS011;39837;47.630;18.822;2023-02-15T08:07:35;24.75;;;16.35;;
53927;SDS011;39837;47.630;18.822;2023-02-15T08:10:19;22.10;;;15.10;;
53927;SDS011;39837;47.630;18.822;2023-02-15T08:13:24;33.35;;;15.15;;
53927;SDS011;39837;47.630;18.822;2023-02-15T08:16:08;17.73;;;11.43;;
53927;SDS011;39837;47.630;18.822;2023-02-15T08:18:52;20.38;;;13.27;;
53927;SDS011;39837;47.630;18.822;2023-02-15T08:21:38;22.35;;;12.50;;
53927;SDS011;39837;47.630;18.822;2023-02-15T08:24:24;15.25;;;10.32;;
53927;SDS011;39837;47.630;18.822;2023-02-15T08:27:10;21.50;;;10.50;;
53927;SDS011;39837;47.630;18.822;2023-02-15T08:29:54;19.30;;;10.95;;
53927;SDS011;39837;47.630;18.822;2023-02-15T08:32:38;12.45;;;8.75;;
53927;SDS011;39837;47.630;18.822;2023-02-15T08:35:22;14.10;;;10.68;;
53927;SDS011;39837;47.630;18.822;2023-02-15T08:38:06;18.25;;;9.90;;
53927;SDS011;39837;47.630;18.822;2023-02-15T08:40:50;17.52;;;12.43;;
53927;SDS011;39837;47.630;18.822;2023-02-15T08:43:34;17.95;;;10.95;;
53927;SDS011;39837;47.630;18.822;2023-02-15T08:46:18;17.65;;;9.63;;
53927;SDS011;39837;47.630;18.822;2023-02-15T08:49:03;20.52;;;9.68;;
53927;SDS011;39837;47.630;18.822;2023-02-15T08:51:48;21.25;;;12.55;;
53927;SDS011;39837;47.630;18.822;2023-02-15T08:54:33;32.15;;;16.27;;
53927;SDS011;39837;47.630;18.822;2023-02-15T08:57:17;22.80;;;12.88;;
53927;SDS011;39837;47.630;18.822;2023-02-15T09:00:01;16.50;;;9.73;;
53927;SDS011;39837;47.630;18.822;2023-02-15T09:02:48;18.20;;;9.00;;
53927;SDS011;39837;47.630;18.822;2023-02-15T09:05:32;11.98;;;7.60;;
53927;SDS011;39837;47.630;18.822;2023-02-15T09:08:16;11.48;;;7.05;;
53927;SDS011;39837;47.630;18.822;2023-02-15T09:11:06;9.27;;;8.10;;
53927;SDS011;39837;47.630;18.822;2023-02-15T09:14:17;9.18;;;7.88;;
53927;SDS011;39837;47.630;18.822;2023-02-15T09:17:03;17.15;;;10.13;;
53927;SDS011;39837;47.630;18.822;2023-02-15T09:19:47;18.48;;;9.60;;
53927;SDS011;39837;47.630;18.822;2023-02-15T09:22:31;13.95;;;8.15;;
53927;SDS011;39837;47.630;18.822;2023-02-15T09:25:16;12.60;;;8.85;;
53927;SDS011;39837;47.630;18.822;2023-02-15T09:28:00;12.63;;;9.65;;
53927;SDS011;39837;47.630;18.822;2023-02-15T09:30:44;17.83;;;10.20;;
53927;SDS011;39837;47.630;18.822;2023-02-15T09:33:28;18.70;;;8.10;;
53927;SDS011;39837;47.630;18.822;2023-02-15T09:36:14;24.50;;;8.80;;
53927;SDS011;39837;47.630;18.822;2023-02-15T09:39:11;13.77;;;9.37;;
53927;SDS011;39837;47.630;18.822;2023-02-15T09:51:09;13.63;;;7.78;;
53927;SDS011;39837;47.630;18.822;2023-02-15T09:54:09;16.48;;;9.23;;
53927;SDS011;39837;47.630;18.822;2023-02-15T09:56:57;9.70;;;7.43;;
53927;SDS011;39837;47.630;18.822;2023-02-15T10:08:49;4.25;;;4.03;;
53927;SDS011;39837;47.630;18.822;2023-02-15T10:26:51;4.82;;;4.43;;
53927;SDS011;39837;47.630;18.822;2023-02-15T10:29:46;19.10;;;7.63;;
53927;SDS011;39837;47.630;18.822;2023-02-15T10:32:36;3.10;;;3.00;;
53927;SDS011;39837;47.630;18.822;2023-02-15T10:36:01;6.50;;;6.00;;
53927;SDS011;39837;47.630;18.822;2023-02-15T10:51:06;5.70;;;5.20;;
53927;SDS011;39837;47.630;18.822;2023-02-15T11:06:16;2.40;;;2.30;;
53927;SDS011;39837;47.630;18.822;2023-02-15T11:09:02;5.72;;;5.10;;
53927;SDS011;39837;47.630;18.822;2023-02-15T11:11:49;4.55;;;4.15;;
53927;SDS011;39837;47.630;18.822;2023-02-15T11:17:22;3.95;;;3.45;;
53927;SDS011;39837;47.630;18.822;2023-02-15T11:23:06;7.50;;;4.95;;
53927;SDS011;39837;47.630;18.822;2023-02-15T11:26:00;6.30;;;5.70;;
53927;SDS011;39837;47.630;18.822;2023-02-15T11:28:51;8.10;;;4.22;;
53927;SDS011;39837;47.630;18.822;2023-02-15T11:31:49;5.13;;;4.43;;
53927;SDS011;39837;47.630;18.822;2023-02-15T11:34:38;5.57;;;5.07;;
53927;SDS011;39837;47.630;18.822;2023-02-15T11:37:33;11.27;;;6.57;;
53927;SDS011;39837;47.630;18.822;2023-02-15T11:40:42;5.70;;;5.18;;
53927;SDS011;39837;47.630;18.822;2023-02-15T11:43:46;6.65;;;5.80;;
53927;SDS011;39837;47.630;18.822;2023-02-15T11:46:36;4.50;;;4.00;;
53927;SDS011;39837;47.630;18.822;2023-02-15T11:52:15;6.80;;;6.13;;
53927;SDS011;39837;47.630;18.822;2023-02-15T11:55:00;7.72;;;6.35;;
53927;SDS011;39837;47.630;18.822;2023-02-15T11:57:45;5.88;;;5.10;;
53927;SDS011;39837;47.630;18.822;2023-02-15T12:00:38;8.85;;;6.90;;
53927;SDS011;39837;47.630;18.822;2023-02-15T12:03:26;10.60;;;7.07;;
53927;SDS011;39837;47.630;18.822;2023-02-15T12:06:17;9.55;;;6.93;;
53927;SDS011;39837;47.630;18.822;2023-02-15T12:15:11;8.18;;;6.72;;
53927;SDS011;39837;47.630;18.822;2023-02-15T12:17:56;9.63;;;7.55;;
53927;SDS011;39837;47.630;18.822;2023-02-15T12:20:41;14.85;;;8.50;;
53927;SDS011;39837;47.630;18.822;2023-02-15T12:23:25;14.65;;;7.00;;
53927;SDS011;39837;47.630;18.822;2023-02-15T12:26:11;16.17;;;7.53;;
53927;SDS011;39837;47.630;18.822;2023-02-15T12:28:56;10.80;;;7.18;;
53927;SDS011;39837;47.630;18.822;2023-02-15T12:31:47;17.42;;;9.00;;
53927;SDS011;39837;47.630;18.822;2023-02-15T12:34:37;9.60;;;7.45;;
53927;SDS011;39837;47.630;18.822;2023-02-15T12:37:27;12.23;;;8.20;;
53927;SDS011;39837;47.630;18.822;2023-02-15T12:40:20;11.35;;;8.43;;
53927;SDS011;39837;47.630;18.822;2023-02-15T12:43:08;8.48;;;7.10;;
53927;SDS011;39837;47.630;18.822;2023-02-15T12:46:27;8.57;;;7.13;;
53927;SDS011;39837;47.630;18.822;2023-02-15T12:52:04;9.40;;;7.07;;
53927;SDS011;39837;47.630;18.822;2023-02-15T12:54:51;10.90;;;6.88;;
53927;SDS011;39837;47.630;18.822;2023-02-15T12:57:35;9.90;;;7.00;;
53927;SDS011;39837;47.630;18.822;2023-02-15T13:03:04;7.03;;;5.78;;
53927;SDS011;39837;47.630;18.822;2023-02-15T13:05:50;8.02;;;6.97;;
53927;SDS011;39837;47.630;18.822;2023-02-15T13:08:45;15.05;;;6.82;;
53927;SDS011;39837;47.630;18.822;2023-02-15T13:11:31;14.05;;;6.45;;
53927;SDS011;39837;47.630;18.822;2023-02-15T13:14:19;8.70;;;6.97;;
53927;SDS011;39837;47.630;18.822;2023-02-15T13:17:05;7.13;;;6.43;;
53927;SDS011;39837;47.630;18.822;2023-02-15T13:19:52;8.10;;;6.25;;
53927;SDS011;39837;47.630;18.822;2023-02-15T13:22:44;11.13;;;8.05;;
53927;SDS011;39837;47.630;18.822;2023-02-15T13:25:31;10.20;;;6.72;;
53927;SDS011;39837;47.630;18.822;2023-02-15T13:28:34;11.43;;;6.97;;
53927;SDS011;39837;47.630;18.822;2023-02-15T13:34:09;9.43;;;7.25;;
53927;SDS011;39837;47.630;18.822;2023-02-15T13:52:21;11.77;;;8.75;;
53927;SDS011;39837;47.630;18.822;2023-02-15T14:04:32;8.85;;;7.30;;
53927;SDS011;39837;47.630;18.822;2023-02-15T14:11:07;13.10;;;8.52;;
53927;SDS011;39837;47.630;18.822;2023-02-15T14:14:05;15.23;;;7.43;;
53927;SDS011;39837;47.630;18.822;2023-02-15T14:20:39;12.43;;;8.88;;
53927;SDS011;39837;47.630;18.822;2023-02-15T14:23:28;8.90;;;7.45;;
53927;SDS011;39837;47.630;18.822;2023-02-15T14:32:24;13.35;;;7.72;;
53927;SDS011;39837;47.630;18.822;2023-02-15T14:35:23;16.00;;;8.35;;
53927;SDS011;39837;47.630;18.822;2023-02-15T14:41:28;11.20;;;7.60;;
53927;SDS011;39837;47.630;18.822;2023-02-15T14:44:40;18.20;;;8.23;;
53927;SDS011;39837;47.630;18.822;2023-02-15T14:47:48;12.60;;;8.30;;
53927;SDS011;39837;47.630;18.822;2023-02-15T14:50:43;11.50;;;8.25;;
53927;SDS011;39837;47.630;18.822;2023-02-15T14:56:20;12.88;;;8.63;;
53927;SDS011;39837;47.630;18.822;2023-02-15T14:59:23;13.70;;;8.25;;
53927;SDS011;39837;47.630;18.822;2023-02-15T15:07:52;13.93;;;7.68;;
53927;SDS011;39837;47.630;18.822;2023-02-15T15:10:42;10.25;;;7.30;;
53927;SDS011;39837;47.630;18.822;2023-02-15T15:16:29;10.45;;;8.65;;
53927;SDS011;39837;47.630;18.822;2023-02-15T15:22:29;10.82;;;8.20;;
53927;SDS011;39837;47.630;18.822;2023-02-15T15:25:57;18.15;;;9.43;;
53927;SDS011;39837;47.630;18.822;2023-02-15T15:31:47;12.50;;;7.70;;
53927;SDS011;39837;47.630;18.822;2023-02-15T15:37:46;13.52;;;10.05;;
53927;SDS011;39837;47.630;18.822;2023-02-15T15:49:58;16.05;;;9.23;;
53927;SDS011;39837;47.630;18.822;2023-02-15T15:52:46;14.02;;;8.18;;
53927;SDS011;39837;47.630;18.822;2023-02-15T15:55:33;8.65;;;7.15;;
53927;SDS011;39837;47.630;18.822;2023-02-15T15:58:18;14.07;;;9.25;;
53927;SDS011;39837;47.630;18.822;2023-02-15T16:01:09;22.05;;;8.48;;
53927;SDS011;39837;47.630;18.822;2023-02-15T16:03:58;20.83;;;9.40;;
53927;SDS011;39837;47.630;18.822;2023-02-15T16:06:42;12.57;;;8.13;;
53927;SDS011;39837;47.630;18.822;2023-02-15T16:09:28;25.80;;;11.15;;
53927;SDS011;39837;47.630;18.822;2023-02-15T16:12:13;17.55;;;10.52;;
53927;SDS011;39837;47.630;18.822;2023-02-15T16:15:01;18.02;;;10.90;;
53927;SDS011;39837;47.630;18.822;2023-02-15T16:17:48;21.95;;;10.82;;
53927;SDS011;39837;47.630;18.822;2023-02-15T16:20:37;16.30;;;9.88;;
53927;SDS011;39837;47.630;18.822;2023-02-15T16:23:26;18.35;;;10.48;;
53927;SDS011;39837;47.630;18.822;2023-02-15T16:29:31;31.00;;;14.82;;
53927;SDS011;39837;47.630;18.822;2023-02-15T16:32:19;20.77;;;11.35;;
53927;SDS011;39837;47.630;18.822;2023-02-15T16:35:13;15.93;;;9.15;;
53927;SDS011;39837;47.630;18.822;2023-02-15T16:37:59;16.35;;;10.32;;
53927;SDS011;39837;47.630;18.822;2023-02-15T16:40:47;20.73;;;12.65;;
53927;SDS011;39837;47.630;18.822;2023-02-15T16:43:37;17.52;;;9.43;;
53927;SDS011;39837;47.630;18.822;2023-02-15T16:46:27;15.05;;;7.85;;
53927;SDS011;39837;47.630;18.822;2023-02-15T16:49:15;19.52;;;9.68;;
53927;SDS011;39837;47.630;18.822;2023-02-15T16:52:02;12.95;;;8.40;;
53927;SDS011;39837;47.630;18.822;2023-02-15T16:54:59;25.80;;;12.82;;
53927;SDS011;39837;47.630;18.822;2023-02-15T16:57:45;15.73;;;11.23;;
53927;SDS011;39837;47.630;18.822;2023-02-15T17:00:31;35.33;;;16.30;;
53927;SDS011;39837;47.630;18.822;2023-02-15T17:03:22;23.30;;;16.23;;
53927;SDS011;39837;47.630;18.822;2023-02-15T17:06:21;15.98;;;11.63;;
53927;SDS011;39837;47.630;18.822;2023-02-15T17:09:13;26.58;;;16.67;;
53927;SDS011;39837;47.630;18.822;2023-02-15T17:12:03;40.80;;;21.35;;
53927;SDS011;39837;47.630;18.822;2023-02-15T17:14:48;24.23;;;16.35;;
53927;SDS011;39837;47.630;18.822;2023-02-15T17:17:39;29.00;;;13.05;;
53927;SDS011;39837;47.630;18.822;2023-02-15T17:20:25;17.80;;;11.95;;
53927;SDS011;39837;47.630;18.822;2023-02-15T17:26:23;21.40;;;13.32;;
53927;SDS011;39837;47.630;18.822;2023-02-15T17:32:00;10.40;;;6.22;;
53927;SDS011;39837;47.630;18.822;2023-02-15T17:34:47;9.73;;;7.35;;
53927;SDS011;39837;47.630;18.822;2023-02-15T17:40:32;9.30;;;7.35;;
53927;SDS011;39837;47.630;18.822;2023-02-15T17:43:17;22.30;;;7.72;;
53927;SDS011;39837;47.630;18.822;2023-02-15T17:46:02;16.40;;;6.70;;
53927;SDS011;39837;47.630;18.822;2023-02-15T17:48:47;14.95;;;7.80;;
53927;SDS011;39837;47.630;18.822;2023-02-15T17:51:34;12.02;;;7.72;;
53927;SDS011;39837;47.630;18.822;2023-02-15T17:54:18;4.32;;;3.92;;
53927;SDS011;39837;47.630;18.822;2023-02-15T17:57:22;11.15;;;6.68;;
53927;SDS011;39837;47.630;18.822;2023-02-15T18:00:06;10.77;;;7.35;;
53927;SDS011;39837;47.630;18.822;2023-02-15T18:03:10;6.72;;;5.88;;
53927;SDS011;39837;47.630;18.822;2023-02-15T18:06:14;7.22;;;6.55;;
53927;SDS011;39837;47.630;18.822;2023-02-15T18:09:19;12.02;;;4.25;;
53927;SDS011;39837;47.630;18.822;2023-02-15T18:12:29;7.78;;;5.45;;
53927;SDS011;39837;47.630;18.822;2023-02-15T18:15:15;10.95;;;6.18;;
53927;SDS011;39837;47.630;18.822;2023-02-15T18:17:59;5.90;;;5.18;;
53927;SDS011;39837;47.630;18.822;2023-02-15T18:20:47;7.90;;;5.63;;
53927;SDS011;39837;47.630;18.822;2023-02-15T18:23:34;8.88;;;6.13;;
53927;SDS011;39837;47.630;18.822;2023-02-15T18:26:19;8.38;;;6.13;;
53927;SDS011;39837;47.630;18.822;2023-02-15T18:29:05;13.35;;;5.25;;
53927;SDS011;39837;47.630;18.822;2023-02-15T18:31:52;7.60;;;6.10;;
53927;SDS011;39837;47.630;18.822;2023-02-15T18:34:37;5.15;;;4.70;;
53927;SDS011;39837;47.630;18.822;2023-02-15T18:37:28;6.53;;;4.38;;
53927;SDS011;39837;47.630;18.822;2023-02-15T18:40:15;16.55;;;4.32;;
53927;SDS011;39837;47.630;18.822;2023-02-15T18:43:01;4.80;;;4.35;;
53927;SDS011;39837;47.630;18.822;2023-02-15T18:45:45;6.78;;;4.82;;
53927;SDS011;39837;47.630;18.822;2023-02-15T18:48:50;15.50;;;5.35;;
53927;SDS011;39837;47.630;18.822;2023-02-15T18:51:35;5.93;;;5.22;;
53927;SDS011;39837;47.630;18.822;2023-02-15T18:54:23;7.32;;;4.95;;
53927;SDS011;39837;47.630;18.822;2023-02-15T18:57:08;4.40;;;4.10;;
53927;SDS011;39837;47.630;18.822;2023-02-15T18:59:56;8.02;;;4.53;;
53927;SDS011;39837;47.630;18.822;2023-02-15T19:02:41;9.02;;;4.63;;
53927;SDS011;39837;47.630;18.822;2023-02-15T19:05:26;8.93;;;6.45;;
53927;SDS011;39837;47.630;18.822;2023-02-15T19:08:15;6.57;;;5.35;;
53927;SDS011;39837;47.630;18.822;2023-02-15T19:11:10;4.22;;;4.00;;
53927;SDS011;39837;47.630;18.822;2023-02-15T19:13:56;3.90;;;3.70;;
53927;SDS011;39837;47.630;18.822;2023-02-15T19:16:41;4.18;;;3.75;;
53927;SDS011;39837;47.630;18.822;2023-02-15T19:19:26;3.63;;;3.33;;
53927;SDS011;39837;47.630;18.822;2023-02-15T19:22:29;6.10;;;5.25;;
53927;SDS011;39837;47.630;18.822;2023-02-15T19:25:16;3.50;;;3.28;;
53927;SDS011;39837;47.630;18.822;2023-02-15T19:28:14;6.70;;;4.53;;
53927;SDS011;39837;47.630;18.822;2023-02-15T19:31:00;3.75;;;3.42;;
53927;SDS011;39837;47.630;18.822;2023-02-15T19:33:45;2.40;;;2.28;;
53927;SDS011;39837;47.630;18.822;2023-02-15T19:36:31;3.15;;;2.95;;
53927;SDS011;39837;47.630;18.822;2023-02-15T19:39:29;3.10;;;3.00;;
53927;SDS011;39837;47.630;18.822;2023-02-15T19:42:21;3.53;;;3.28;;
53927;SDS011;39837;47.630;18.822;2023-02-15T19:45:16;3.80;;;3.35;;
53927;SDS011;39837;47.630;18.822;2023-02-15T19:48:04;6.45;;;4.63;;
53927;SDS011;39837;47.630;18.822;2023-02-15T19:50:49;4.22;;;3.92;;
53927;SDS011;39837;47.630;18.822;2023-02-15T19:56:20;1.90;;;1.85;;
53927;SDS011;39837;47.630;18.822;2023-02-15T19:59:12;4.03;;;3.65;;
53927;SDS011;39837;47.630;18.822;2023-02-15T20:02:12;5.50;;;4.82;;
53927;SDS011;39837;47.630;18.822;2023-02-15T20:04:58;3.78;;;3.47;;
53927;SDS011;39837;47.630;18.822;2023-02-15T20:07:43;7.50;;;5.13;;
53927;SDS011;39837;47.630;18.822;2023-02-15T20:10:30;6.05;;;5.53;;